Time;durP1;ratioP1;P1;durP2;ratioP2;P2;SDS_P1;SDS_P2;PMS_P1;PMS_P2;Temp;Humidity;BMP_temperature;BMP_pressure;BME280_temperature;BME280_humidity;BME280_pressure;Samples;Min_cycle;Max_cycle;Signal;HPM_P1;HPM_P2
2022/12/07 00:01:49;;;;;;;36.50;22.00;;;;;;;1.19;89.52;99355.85;100204;1279;137984;-69
2022/12/07 00:04:18;;;;;;;36.70;20.90;;;;;;;1.20;89.38;99355.67;100326;1294;109743;-69
2022/12/07 00:06:48;;;;;;;34.90;21.00;;;;;;;1.22;89.48;99351.38;100342;1286;106845;-69
2022/12/07 00:09:17;;;;;;;35.50;21.20;;;;;;;1.24;89.71;99352.89;100234;1286;138293;-69
2022/12/07 00:11:45;;;;;;;34.30;21.50;;;;;;;1.24;89.59;99344.34;100259;1292;107162;-69
2022/12/07 00:14:16;;;;;;;35.10;21.90;;;;;;;1.24;89.66;99343.48;100215;1294;138912;-69
2022/12/07 00:16:44;;;;;;;37.90;22.60;;;;;;;1.24;89.79;99336.45;100277;1287;109845;-69
2022/12/07 00:19:13;;;;;;;40.00;23.50;;;;;;;1.24;89.90;99336.81;100097;1294;138334;-70
2022/12/07 00:21:41;;;;;;;43.70;24.60;;;;;;;1.21;89.75;99332.04;100332;1279;96466;-69
2022/12/07 00:24:08;;;;;;;37.70;22.90;;;;;;;1.21;89.89;99333.59;100313;1286;107570;-69
2022/12/07 00:26:37;;;;;;;39.90;25.00;;;;;;;1.22;90.19;99336.14;100179;1286;139230;-69
2022/12/07 00:29:08;;;;;;;44.30;25.40;;;;;;;1.23;90.22;99338.02;100356;1294;109861;-69
2022/12/07 00:31:38;;;;;;;44.40;25.50;;;;;;;1.24;90.25;99336.29;100201;1292;138252;-69
2022/12/07 00:34:07;;;;;;;47.00;26.70;;;;;;;1.27;90.40;99334.23;100383;1296;96581;-68
2022/12/07 00:36:34;;;;;;;48.70;27.70;;;;;;;1.32;90.56;99337.77;100340;1294;108388;-68
2022/12/07 00:39:02;;;;;;;53.70;30.00;;;;;;;1.33;90.41;99332.79;100205;1286;138160;-68
2022/12/07 00:41:30;;;;;;;50.30;28.60;;;;;;;1.34;90.51;99333.48;100246;1286;109050;-69
2022/12/07 00:43:58;;;;;;;51.20;29.90;;;;;;;1.35;90.73;99330.55;100081;1295;138079;-68
2022/12/07 00:46:26;;;;;;;56.50;31.70;;;;;;;1.37;90.80;99326.41;100264;1286;97507;-68
2022/12/07 00:48:54;;;;;;;59.10;33.10;;;;;;;1.39;90.90;99327.59;100336;1291;107609;-68
2022/12/07 00:51:25;;;;;;;55.70;31.30;;;;;;;1.39;90.91;99326.05;100128;1295;137888;-68
2022/12/07 00:53:52;;;;;;;58.10;32.70;;;;;;;1.42;91.06;99326.19;100343;1291;109334;-68
2022/12/07 00:56:22;;;;;;;60.70;33.20;;;;;;;1.43;91.05;99324.63;100237;1294;138576;-68
2022/12/07 00:58:55;;;;;;;63.90;34.20;;;;;;;1.44;91.22;99324.13;100268;1294;97435;-68
2022/12/07 01:01:23;;;;;;;64.60;35.10;;;;;;;1.45;91.33;99319.84;100250;1288;138674;-68
2022/12/07 01:03:50;;;;;;;64.50;35.10;;;;;;;1.46;91.34;99324.97;100302;1286;96277;-68
2022/12/07 01:06:19;;;;;;;61.80;34.30;;;;;;;1.47;91.66;99324.44;100357;1291;109314;-67
2022/12/07 01:08:46;;;;;;;62.90;34.00;;;;;;;1.49;91.65;99317.91;100121;1284;139125;-68
2022/12/07 01:11:16;;;;;;;60.70;33.60;;;;;;;1.51;91.72;99317.73;100354;1294;96432;-67
2022/12/07 01:13:44;;;;;;;61.00;33.20;;;;;;;1.51;91.70;99315.66;100129;1285;138329;-66
2022/12/07 01:16:14;;;;;;;59.80;31.70;;;;;;;1.51;91.48;99313.95;100304;1285;96458;-69
2022/12/07 01:18:42;;;;;;;56.90;33.30;;;;;;;1.51;91.83;99314.29;100936;1286;109284;-67
2022/12/07 01:21:12;;;;;;;57.30;31.50;;;;;;;1.50;91.64;99310.70;100220;1293;138067;-69
2022/12/07 01:23:39;;;;;;;61.70;32.30;;;;;;;1.47;91.74;99307.31;100339;1286;96545;-69
2022/12/07 01:26:08;;;;;;;57.80;31.50;;;;;;;1.48;91.99;99306.79;100175;1291;137822;-67
2022/12/07 01:28:36;;;;;;;58.60;32.60;;;;;;;1.48;91.92;99307.45;100916;1284;96558;-67
2022/12/07 01:31:05;;;;;;;61.60;32.20;;;;;;;1.50;92.02;99304.53;100382;1286;110490;-68
2022/12/07 01:33:34;;;;;;;64.10;32.40;;;;;;;1.50;92.05;99308.98;101671;1288;107487;-68
2022/12/07 01:36:05;;;;;;;58.50;31.30;;;;;;;1.51;92.39;99306.41;100250;1294;96482;-68
2022/12/07 01:38:33;;;;;;;54.40;30.80;;;;;;;1.52;92.18;99308.27;100195;1292;138149;-68
2022/12/07 01:41:02;;;;;;;54.10;28.80;;;;;;;1.54;92.46;99310.65;100163;1286;96466;-68
2022/12/07 01:43:31;;;;;;;45.60;26.80;;;;;;;1.58;92.56;99310.27;100443;1285;138059;-68
2022/12/07 01:45:59;;;;;;;44.00;26.60;;;;;;;1.60;92.39;99305.95;100716;1284;107329;-67
2022/12/07 01:48:30;;;;;;;45.90;25.20;;;;;;;1.63;92.51;99308.52;100316;1284;96745;-67
2022/12/07 01:51:01;;;;;;;44.50;25.50;;;;;;;1.63;92.43;99310.40;100849;1284;138624;-68
2022/12/07 01:53:31;;;;;;;43.90;24.50;;;;;;;1.64;92.23;99307.13;100235;1284;97173;-67
2022/12/07 01:55:59;;;;;;;36.00;22.80;;;;;;;1.63;92.11;99306.45;100026;1284;139594;-68
2022/12/07 01:58:27;;;;;;;36.90;21.50;;;;;;;1.63;92.27;99306.13;100245;1286;107217;-67
2022/12/07 02:00:54;;;;;;;34.50;20.60;;;;;;;1.64;92.46;99302.34;100283;1285;98086;-68
2022/12/07 02:03:27;;;;;;;31.70;19.80;;;;;;;1.67;92.52;99302.46;100169;1287;138345;-68
2022/12/07 02:05:56;;;;;;;28.10;17.10;;;;;;;1.69;92.40;99297.12;100313;1286;96341;-68
2022/12/07 02:08:25;;;;;;;26.80;17.10;;;;;;;1.71;92.36;99296.24;100347;1284;138618;-68
2022/12/07 02:10:52;;;;;;;22.70;14.90;;;;;;;1.73;92.59;99292.77;100270;1285;107220;-68
2022/12/07 02:13:28;;;;;;;20.50;14.50;;;;;;;1.75;92.36;99294.99;100197;1294;138713;-68
2022/12/07 02:16:09;;;;;;;26.30;15.40;;;;;;;1.75;92.32;99296.53;100265;1294;107509;-68
2022/12/07 02:18:56;;;;;;;21.10;13.80;;;;;;;1.75;92.32;99291.38;100269;1296;96464;-68
2022/12/07 02:21:31;;;;;;;22.70;13.40;;;;;;;1.77;92.37;99295.48;100130;1285;137892;-68
2022/12/07 02:24:21;;;;;;;18.00;12.40;;;;;;;1.76;92.31;99295.65;100158;1285;107150;-68
2022/12/07 02:27:19;;;;;;;18.70;12.10;;;;;;;1.76;92.48;99298.23;100043;1292;138337;-68
2022/12/07 02:29:55;;;;;;;17.40;11.90;;;;;;;1.77;92.44;99295.13;100171;1284;106551;-68
2022/12/07 02:32:28;;;;;;;16.40;11.30;;;;;;;1.76;92.27;99294.98;100125;1285;138453;-67
2022/12/07 02:35:04;;;;;;;16.30;11.10;;;;;;;1.75;92.24;99291.56;100332;1292;109721;-68
2022/12/07 02:37:40;;;;;;;17.70;11.70;;;;;;;1.72;92.34;99290.23;100100;1292;138831;-68
2022/12/07 02:40:17;;;;;;;16.50;11.30;;;;;;;1.70;92.38;99286.48;100345;1287;96992;-68
2022/12/07 02:42:50;;;;;;;15.60;11.10;;;;;;;1.68;92.18;99289.95;100319;1286;106312;-68
2022/12/07 02:45:19;;;;;;;17.90;11.70;;;;;;;1.66;92.13;99290.65;100160;1284;138170;-68
2022/12/07 02:47:49;;;;;;;18.60;11.60;;;;;;;1.67;92.34;99290.30;100306;1285;109471;-67
2022/12/07 02:50:18;;;;;;;15.90;10.80;;;;;;;1.69;92.38;99289.58;100169;1292;138226;-68
2022/12/07 02:52:45;;;;;;;13.60;10.60;;;;;;;1.71;92.16;99285.27;100188;1292;96468;-68
2022/12/07 02:55:14;;;;;;;15.20;10.40;;;;;;;1.71;92.04;99286.47;100188;1294;138178;-68
2022/12/07 02:57:54;;;;;;;19.50;12.30;;;;;;;1.72;92.12;99283.04;100257;1286;96495;-68
2022/12/07 03:00:22;;;;;;;14.00;10.30;;;;;;;1.72;91.95;99287.83;100231;1279;108856;-67
2022/12/07 03:02:56;;;;;;;15.10;10.20;;;;;;;1.72;91.97;99285.77;99455;1285;1003086;-67
2022/12/07 03:05:55;;;;;;;16.90;10.70;;;;;;;1.73;91.86;99288.84;100325;1286;96462;-68
2022/12/07 03:08:25;;;;;;;;;;;;;;;1.73;91.78;99286.27;100059;1292;138234;-68
2022/12/07 03:10:58;;;;;;;18.80;12.20;;;;;;;1.71;91.68;99283.39;100324;1286;96477;-67
2022/12/07 03:13:31;;;;;;;15.10;9.50;;;;;;;1.71;91.69;99287.33;100115;1287;138348;-68
2022/12/07 03:16:03;;;;;;;14.70;9.80;;;;;;;1.70;91.79;99284.77;100286;1285;106680;-68
2022/12/07 03:18:34;;;;;;;16.50;10.80;;;;;;;1.70;91.71;99282.36;100204;1285;96466;-68
2022/12/07 03:21:08;;;;;;;15.70;11.20;;;;;;;1.70;91.66;99281.18;100076;1284;138125;-68
2022/12/07 03:23:38;;;;;;;17.60;11.20;;;;;;;1.71;91.64;99275.34;100075;1297;96421;-68
2022/12/07 03:26:09;;;;;;;17.30;11.20;;;;;;;1.70;91.50;99276.73;100031;1286;217639;-69
2022/12/07 03:28:41;;;;;;;15.90;11.00;;;;;;;1.70;91.65;99275.00;100196;1287;106545;-68
2022/12/07 03:31:17;;;;;;;17.30;11.70;;;;;;;1.72;91.62;99274.45;100136;1285;138271;-68
2022/12/07 03:33:50;;;;;;;17.10;11.40;;;;;;;1.72;91.60;99273.43;100191;1286;105255;-68
2022/12/07 03:36:26;;;;;;;15.30;11.00;;;;;;;1.74;91.68;99272.89;100178;1292;96339;-68
2022/12/07 03:38:59;;;;;;;14.10;9.90;;;;;;;1.75;91.60;99267.73;100122;1285;138124;-68
2022/12/07 03:41:30;;;;;;;12.50;9.30;;;;;;;1.76;91.46;99267.38;101004;1286;107490;-68
2022/12/07 03:43:58;;;;;;;13.50;9.40;;;;;;;1.73;91.32;99261.60;100204;1294;137840;-68
2022/12/07 03:46:35;;;;;;;11.70;8.30;;;;;;;1.69;91.14;99258.06;100190;1284;107873;-68
2022/12/07 03:49:11;;;;;;;10.90;7.70;;;;;;;1.68;91.30;99255.83;100851;1286;94691;-68
2022/12/07 03:51:45;;;;;;;12.10;7.90;;;;;;;1.70;91.45;99255.30;100738;1286;110203;-68
2022/12/07 03:54:16;;;;;;;10.80;7.40;;;;;;;1.72;91.44;99252.02;100208;1287;107387;-68
2022/12/07 03:56:45;;;;;;;10.50;7.80;;;;;;;1.70;91.08;99248.45;100106;1286;137966;-67
2022/12/07 03:59:15;;;;;;;10.30;7.40;;;;;;;1.66;90.84;99249.35;100162;1280;107530;-67
2022/12/07 04:01:44;;;;;;;9.80;7.20;;;;;;;1.64;90.93;99248.01;100205;1285;138015;-67
2022/12/07 04:04:11;;;;;;;10.80;7.70;;;;;;;1.61;91.08;99251.12;100579;1292;110016;-68
2022/12/07 04:06:38;;;;;;;10.40;7.70;;;;;;;1.59;90.86;99247.19;100191;1285;107754;-68
2022/12/07 04:09:06;;;;;;;9.30;7.00;;;;;;;1.56;90.66;99241.92;100148;1285;137823;-68
2022/12/07 04:11:33;;;;;;;12.10;8.00;;;;;;;1.53;90.83;99240.10;100278;1286;106130;-68
2022/12/07 04:16:44;;;;;;;11.00;7.70;;;;;;;1.46;90.61;99240.69;100257;1289;110621;-68
2022/12/07 04:19:12;;;;;;;10.90;7.90;;;;;;;1.43;90.64;99242.59;100219;1295;139331;-68
2022/12/07 04:21:39;;;;;;;10.80;7.70;;;;;;;1.40;90.77;99243.81;100274;1286;96476;-68
2022/12/07 04:24:07;;;;;;;9.30;7.10;;;;;;;1.39;90.84;99241.27;100201;1286;108037;-68
2022/12/07 04:26:34;;;;;;;9.60;7.10;;;;;;;1.40;90.98;99241.25;100098;1285;137626;-68
2022/12/07 04:29:01;;;;;;;12.60;7.60;;;;;;;1.39;90.93;99241.77;100255;1286;109306;-68
2022/12/07 04:31:33;;;;;;;10.10;7.40;;;;;;;1.38;90.98;99244.36;100141;1286;138452;-68
2022/12/07 04:34:00;;;;;;;9.20;6.80;;;;;;;1.38;90.80;99240.94;100286;1285;98064;-68
2022/12/07 04:36:28;;;;;;;10.30;7.40;;;;;;;1.39;90.95;99238.86;100280;1295;106446;-68
2022/12/07 04:38:57;;;;;;;9.70;7.00;;;;;;;1.40;90.93;99234.91;100170;1288;137969;-68
2022/12/07 04:41:27;;;;;;;9.50;6.80;;;;;;;1.40;90.82;99236.97;100299;1286;108194;-68
2022/12/07 04:43:56;;;;;;;9.10;7.10;;;;;;;1.38;90.76;99234.93;100003;1285;137712;-68
2022/12/07 04:46:23;;;;;;;8.30;6.90;;;;;;;1.37;90.73;99234.61;100213;1294;96367;-68
2022/12/07 04:48:50;;;;;;;8.10;6.60;;;;;;;1.36;90.77;99236.69;100253;1285;105288;-68
2022/12/07 04:51:20;;;;;;;9.20;6.90;;;;;;;1.34;90.71;99238.76;100217;1296;138495;-68
2022/12/07 04:53:47;;;;;;;11.40;7.70;;;;;;;1.35;90.72;99236.17;100269;1288;108626;-68
2022/12/07 04:56:15;;;;;;;10.90;7.70;;;;;;;1.36;90.73;99234.11;100196;1285;137883;-68
2022/12/07 04:58:42;;;;;;;11.20;8.10;;;;;;;1.34;90.64;99229.17;100291;1278;96979;-68
2022/12/07 05:01:10;;;;;;;11.20;7.70;;;;;;;1.32;90.59;99226.11;100066;1285;138117;-68
2022/12/07 05:03:38;;;;;;;11.60;8.00;;;;;;;1.29;90.46;99227.86;100242;1288;96469;-68
2022/12/07 05:06:06;;;;;;;10.60;7.40;;;;;;;1.29;90.49;99229.41;100265;1278;109756;-68
2022/12/07 05:08:39;;;;;;;8.90;7.30;;;;;;;1.30;90.58;99226.48;100108;1285;138893;-68
2022/12/07 05:11:08;;;;;;;9.30;6.80;;;;;;;1.31;90.73;99225.79;100280;1278;98095;-68
2022/12/07 05:13:36;;;;;;;10.00;7.10;;;;;;;1.32;90.65;99223.20;100079;1286;137691;-68
2022/12/07 05:16:03;;;;;;;10.60;7.50;;;;;;;1.32;90.61;99220.45;100211;1285;96523;-68
2022/12/07 05:18:31;;;;;;;8.70;7.00;;;;;;;1.31;90.33;99219.45;100307;1284;110178;-68
2022/12/07 05:20:58;;;;;;;8.80;6.60;;;;;;;1.30;90.46;99215.00;100166;1293;138627;-68
2022/12/07 05:23:25;;;;;;;10.20;7.00;;;;;;;1.30;90.37;99211.77;100342;1287;96972;-69
2022/12/07 05:25:52;;;;;;;11.00;6.80;;;;;;;1.26;90.29;99211.97;100162;1285;137712;-69
2022/12/07 05:28:19;;;;;;;8.20;6.30;;;;;;;1.25;90.27;99211.61;100320;1284;96607;-69
2022/12/07 05:30:46;;;;;;;9.50;6.90;;;;;;;1.24;90.40;99215.73;100212;1280;109789;-69
2022/12/07 05:33:13;;;;;;;8.10;6.60;;;;;;;1.21;90.11;99212.34;100109;1294;137900;-69
2022/12/07 05:35:41;;;;;;;10.40;7.00;;;;;;;1.19;90.29;99209.47;100342;1292;96862;-72
2022/12/07 05:38:08;;;;;;;10.20;7.50;;;;;;;1.21;91.01;99207.21;100236;1286;137732;-72
2022/12/07 05:40:35;;;;;;;8.80;6.50;;;;;;;1.21;90.97;99210.81;100333;1288;96500;-70
2022/12/07 05:43:02;;;;;;;9.30;6.70;;;;;;;1.19;90.64;99214.08;100299;1279;109476;-69
2022/12/07 05:45:31;;;;;;;9.60;6.60;;;;;;;1.15;90.28;99216.02;100228;1292;108333;-70
2022/12/07 05:47:58;;;;;;;12.60;6.90;;;;;;;1.14;90.47;99216.89;100228;1286;96545;-69
2022/12/07 05:50:25;;;;;;;9.60;7.10;;;;;;;1.13;90.30;99215.02;100111;1294;139014;-70
2022/12/07 05:52:59;;;;;;;10.00;7.00;;;;;;;1.11;90.28;99222.57;100273;1294;96474;-70
2022/12/07 05:55:27;;;;;;;7.80;6.40;;;;;;;1.09;90.34;99222.60;100184;1285;137780;-67
2022/12/07 06:00:39;;;;;;;7.50;6.20;;;;;;;1.07;90.42;99221.05;100250;1285;97000;-66
2022/12/07 06:03:06;;;;;;;9.80;6.40;;;;;;;1.07;90.54;99219.70;100216;1278;137606;-67
2022/12/07 06:05:33;;;;;;;9.00;6.10;;;;;;;1.06;90.37;99213.20;100428;1288;96569;-68
2022/12/07 06:08:00;;;;;;;9.00;6.50;;;;;;;1.07;90.37;99214.73;100315;1285;137606;-68
2022/12/07 06:10:32;;;;;;;8.60;6.70;;;;;;;1.05;90.30;99216.45;100283;1294;107044;-69
2022/12/07 06:12:59;;;;;;;8.90;6.50;;;;;;;1.05;90.48;99218.51;100277;1286;96598;-69
2022/12/07 06:15:26;;;;;;;8.70;6.60;;;;;;;1.04;90.37;99216.64;100130;1286;136692;-68
2022/12/07 06:17:54;;;;;;;11.20;7.00;;;;;;;1.00;90.23;99214.81;100310;1289;96360;-69
2022/12/07 06:20:21;;;;;;;13.60;7.00;;;;;;;0.96;90.35;99217.77;100118;1295;137850;-69
2022/12/07 06:22:48;;;;;;;8.20;6.00;;;;;;;0.95;90.47;99216.07;100241;1285;108380;-70
2022/12/07 06:25:15;;;;;;;9.90;6.80;;;;;;;0.93;90.49;99216.42;100204;1278;138114;-70
2022/12/07 06:27:43;;;;;;;9.30;7.10;;;;;;;0.89;90.41;99211.99;100337;1286;108156;-70
2022/12/07 06:30:11;;;;;;;9.40;6.60;;;;;;;0.87;90.56;99211.84;100239;1287;96492;-70
2022/12/07 06:32:39;;;;;;;9.00;7.00;;;;;;;0.84;90.40;99206.06;101628;1279;137607;-70
2022/12/07 06:35:07;;;;;;;10.10;6.80;;;;;;;0.81;90.62;99207.64;101683;1289;107519;-69
2022/12/07 06:37:34;;;;;;;10.70;7.80;;;;;;;0.78;90.55;99209.55;101621;1289;138016;-69
2022/12/07 06:40:02;;;;;;;9.10;7.50;;;;;;;0.76;90.71;99210.42;101730;1286;106469;-68
2022/12/07 06:42:30;;;;;;;11.30;7.10;;;;;;;0.76;90.78;99210.08;101679;1288;94234;-69
2022/12/07 06:44:57;;;;;;;10.30;7.70;;;;;;;0.74;90.78;99210.80;101275;1280;138011;-66
2022/12/07 06:47:25;;;;;;;12.00;8.20;;;;;;;0.73;90.82;99211.83;100198;1285;107573;-67
2022/12/07 06:50:12;;;;;;;12.00;8.10;;;;;;;0.74;91.20;99209.42;100376;1289;137962;-66
2022/12/07 06:52:39;;;;;;;12.80;8.60;;;;;;;0.75;91.71;99209.75;100397;1286;108269;-66
2022/12/07 06:55:08;;;;;;;10.70;8.30;;;;;;;0.80;91.78;99212.44;100202;1286;96477;-70
2022/12/07 06:57:35;;;;;;;10.50;8.10;;;;;;;0.77;91.40;99209.05;100032;1286;109223;-71
2022/12/07 07:00:03;;;;;;;11.30;8.20;;;;;;;0.75;91.29;99209.94;99912;1279;107317;-71
2022/12/07 07:02:31;;;;;;;10.60;7.90;;;;;;;0.72;91.28;99213.70;99752;1286;138090;-70
2022/12/07 07:04:59;;;;;;;12.00;8.30;;;;;;;0.71;91.25;99211.14;99853;1286;107361;-71
2022/12/07 07:07:26;;;;;;;12.10;8.60;;;;;;;0.71;91.40;99215.08;99765;1286;137923;-74
2022/12/07 07:09:53;;;;;;;10.40;8.00;;;;;;;0.69;91.32;99215.27;100028;1280;109249;-71
2022/12/07 07:12:21;;;;;;;11.30;8.10;;;;;;;0.67;91.30;99218.71;99852;1286;107269;-71
2022/12/07 07:14:48;;;;;;;11.60;8.30;;;;;;;0.63;91.28;99218.07;99729;1278;137681;-71
2022/12/07 07:17:15;;;;;;;10.30;7.60;;;;;;;0.61;91.46;99212.77;99913;1282;107929;-71
2022/12/07 07:19:42;;;;;;;12.30;8.00;;;;;;;0.60;91.37;99206.29;99855;1279;142093;-71
2022/12/07 07:22:10;;;;;;;11.10;7.50;;;;;;;0.61;91.56;99209.70;100013;1282;111342;-71
2022/12/07 07:24:37;;;;;;;12.40;8.70;;;;;;;0.60;91.53;99206.29;99891;1284;108074;-71
2022/12/07 07:27:04;;;;;;;11.70;7.80;;;;;;;0.60;91.66;99206.98;99893;1272;137923;-72
2022/12/07 07:29:32;;;;;;;10.90;7.50;;;;;;;0.61;91.51;99207.48;99984;1282;107416;-72
2022/12/07 07:32:00;;;;;;;10.20;8.10;;;;;;;0.59;91.55;99213.31;99878;1286;137790;-73
2022/12/07 07:34:32;;;;;;;12.40;8.60;;;;;;;0.58;91.72;99210.92;99986;1279;111749;-73
2022/12/07 07:36:59;;;;;;;12.80;8.30;;;;;;;0.57;91.65;99213.16;99917;1286;106885;-73
2022/12/07 07:39:26;;;;;;;11.20;8.10;;;;;;;0.57;91.75;99214.52;99842;1286;138532;-71
2022/12/07 07:41:54;;;;;;;9.90;7.80;;;;;;;0.56;91.74;99216.93;99969;1285;107227;-70
2022/12/07 07:44:24;;;;;;;11.30;7.80;;;;;;;0.56;91.94;99214.88;99903;1278;137735;-69
2022/12/07 07:46:57;;;;;;;10.50;8.00;;;;;;;0.57;92.07;99213.67;100023;1280;109424;-69
2022/12/07 07:49:25;;;;;;;13.10;8.70;;;;;;;0.57;92.20;99209.05;99833;1286;138253;-70
2022/12/07 07:51:52;;;;;;;11.80;8.50;;;;;;;0.58;92.02;99211.61;99958;1279;96976;-71
2022/12/07 07:54:20;;;;;;;10.80;8.30;;;;;;;0.57;92.05;99212.48;99882;1282;107333;-70
2022/12/07 07:56:48;;;;;;;11.10;7.90;;;;;;;0.58;92.16;99209.90;99800;1285;140272;-69
2022/12/07 07:59:15;;;;;;;12.40;9.10;;;;;;;0.59;92.19;99212.97;99973;1286;110923;-67
2022/12/07 08:01:42;;;;;;;11.30;8.10;;;;;;;0.60;92.23;99209.02;99877;1286;137886;-70
2022/12/07 08:04:10;;;;;;;13.40;9.20;;;;;;;0.59;92.36;99214.85;99934;1286;96358;-70
2022/12/07 08:06:37;;;;;;;14.50;9.50;;;;;;;0.60;92.20;99211.42;100002;1286;106472;-69
2022/12/07 08:09:05;;;;;;;13.00;9.20;;;;;;;0.60;92.35;99215.19;99617;1281;138270;-69
2022/12/07 08:11:32;;;;;;;12.00;8.50;;;;;;;0.63;92.54;99212.77;99968;1279;110135;-71
2022/12/07 08:13:59;;;;;;;14.80;9.60;;;;;;;0.63;92.70;99216.36;99891;1286;139386;-70
2022/12/07 08:16:27;;;;;;;14.80;9.30;;;;;;;0.68;92.84;99219.89;99939;1286;97118;-70
2022/12/07 08:18:54;;;;;;;14.80;9.50;;;;;;;0.72;93.00;99222.09;99907;1279;107390;-70
2022/12/07 08:21:21;;;;;;;16.10;10.00;;;;;;;0.75;92.82;99222.92;99759;1287;137777;-69
2022/12/07 08:23:48;;;;;;;18.70;11.30;;;;;;;0.77;92.91;99223.77;99917;1286;110926;-71
2022/12/07 08:26:17;;;;;;;18.40;10.30;;;;;;;0.78;92.87;99226.48;99823;1286;138016;-71
2022/12/07 08:28:45;;;;;;;20.80;11.30;;;;;;;0.79;92.88;99228.54;100183;1286;96492;-69
2022/12/07 08:31:15;;;;;;;20.90;11.60;;;;;;;0.79;92.79;99230.41;100026;1286;138093;-70
2022/12/07 08:33:43;;;;;;;25.20;12.70;;;;;;;0.80;93.03;99234.00;99982;1288;96338;-71
2022/12/07 08:36:13;;;;;;;23.50;12.80;;;;;;;0.81;93.06;99237.41;99863;1287;139200;-68
2022/12/07 08:38:42;;;;;;;24.60;12.00;;;;;;;0.81;93.20;99237.23;100020;1281;106995;-69
2022/12/07 08:41:29;;;;;;;20.20;12.10;;;;;;;0.80;93.27;99237.60;100054;1287;138375;-69
2022/12/07 08:43:56;;;;;;;21.30;12.60;;;;;;;0.81;93.41;99236.72;100118;1281;108875;-69
2022/12/07 08:46:27;;;;;;;20.30;12.80;;;;;;;0.86;93.65;99238.89;100093;1288;95254;-69
2022/12/07 08:48:58;;;;;;;25.80;13.10;;;;;;;0.92;93.83;99237.50;99972;1281;137851;-69
2022/12/07 08:51:26;;;;;;;20.60;13.00;;;;;;;1.02;93.85;99240.80;99977;1280;107635;-69
2022/12/07 08:53:54;;;;;;;19.30;11.90;;;;;;;1.08;93.71;99233.90;99961;1287;137909;-69
2022/12/07 08:56:22;;;;;;;20.40;12.40;;;;;;;1.16;93.61;99234.15;100027;1281;108044;-68
2022/12/07 08:58:49;;;;;;;21.60;12.00;;;;;;;1.27;93.68;99229.26;100063;1281;96361;-70
2022/12/07 09:01:17;;;;;;;18.90;11.50;;;;;;;1.41;93.73;99230.98;100188;1288;110427;-69
2022/12/07 09:03:44;;;;;;;20.50;11.80;;;;;;;1.54;93.50;99228.25;100000;1282;107520;-68
2022/12/07 09:06:11;;;;;;;19.30;11.40;;;;;;;1.66;93.40;99231.55;100025;1285;137643;-69
2022/12/07 09:08:43;;;;;;;18.40;12.40;;;;;;;1.77;93.10;99227.77;100051;1285;109137;-69
2022/12/07 09:11:10;;;;;;;20.50;12.30;;;;;;;1.84;92.65;99227.20;100056;1289;137690;-71
2022/12/07 09:13:37;;;;;;;19.60;12.70;;;;;;;1.85;92.17;99221.70;100160;1288;111168;-68
2022/12/07 09:16:04;;;;;;;19.10;12.90;;;;;;;1.89;92.19;99217.01;100168;1288;106464;-70
2022/12/07 09:18:32;;;;;;;20.10;12.90;;;;;;;1.90;92.05;99215.79;99993;1280;139339;-69
2022/12/07 09:20:59;;;;;;;18.50;12.30;;;;;;;1.92;91.86;99218.33;99998;1288;108048;-68
2022/12/07 09:23:27;;;;;;;18.90;12.40;;;;;;;1.97;92.01;99209.52;99929;1282;138400;-71
2022/12/07 09:25:55;;;;;;;19.20;12.40;;;;;;;2.02;91.87;99209.28;100106;1286;110974;-68
2022/12/07 09:28:22;;;;;;;18.60;11.80;;;;;;;2.06;91.53;99200.83;99920;1288;108018;-68
2022/12/07 09:30:50;;;;;;;19.70;12.10;;;;;;;2.10;91.50;99199.23;99991;1281;138166;-68
2022/12/07 09:33:37;;;;;;;18.80;11.90;;;;;;;2.16;91.54;99196.05;100154;1287;106505;-67
2022/12/07 09:36:06;;;;;;;19.10;11.60;;;;;;;2.20;91.18;99199.60;100139;1281;138261;-68
2022/12/07 09:38:33;;;;;;;17.60;11.50;;;;;;;2.26;91.22;99200.35;101073;1287;110650;-67
2022/12/07 09:41:07;;;;;;;17.30;11.20;;;;;;;2.30;90.74;99200.10;100146;1281;138085;-67
2022/12/07 09:43:35;;;;;;;19.80;11.70;;;;;;;2.35;90.59;99201.25;100721;1281;98155;-68
2022/12/07 09:46:04;;;;;;;22.00;12.80;;;;;;;2.39;90.58;99198.96;101581;1289;107581;-68
2022/12/07 09:48:35;;;;;;;21.90;13.50;;;;;;;2.41;90.30;99197.20;100569;1288;137662;-69
2022/12/07 09:51:04;;;;;;;21.30;13.20;;;;;;;2.44;90.38;99194.06;100100;1295;110943;-68
2022/12/07 09:53:34;;;;;;;19.70;12.70;;;;;;;2.45;90.12;99196.11;100356;1289;139393;-68
2022/12/07 09:56:02;;;;;;;20.20;12.10;;;;;;;2.46;89.59;99190.26;100459;1282;98287;-68
2022/12/07 09:58:32;;;;;;;20.10;11.00;;;;;;;2.48;89.42;99192.80;100649;1288;108256;-67
2022/12/07 10:01:02;;;;;;;19.50;11.70;;;;;;;2.46;88.95;99188.02;100741;1289;138326;-69
2022/12/07 10:03:30;;;;;;;17.10;10.80;;;;;;;2.47;88.67;99188.52;100284;1288;111121;-68
2022/12/07 10:05:58;;;;;;;20.00;12.60;;;;;;;2.53;88.99;99184.48;100030;1288;138383;-69
2022/12/07 10:08:27;;;;;;;17.50;11.40;;;;;;;2.57;88.57;99185.27;99981;1289;98932;-69
2022/12/07 10:10:57;;;;;;;22.00;12.00;;;;;;;2.59;88.24;99182.84;100061;1281;107045;-69
2022/12/07 10:13:37;;;;;;;19.40;11.60;;;;;;;2.61;88.22;99185.73;100022;1289;97807;-69
2022/12/07 10:16:04;;;;;;;19.30;11.60;;;;;;;2.64;88.13;99188.42;100001;1288;111596;-69
2022/12/07 10:18:35;;;;;;;24.30;13.10;;;;;;;2.64;87.92;99189.77;99814;1288;138748;-69
2022/12/07 10:21:11;;;;;;;21.10;11.80;;;;;;;2.62;87.77;99187.06;101672;1288;95697;-69
2022/12/07 10:23:40;;;;;;;22.30;13.10;;;;;;;2.57;87.50;99188.55;101506;1288;137993;-69
2022/12/07 10:26:28;;;;;;;19.10;11.60;;;;;;;2.56;87.74;99185.46;101650;1288;95944;-70
2022/12/07 10:28:57;;;;;;;18.80;11.90;;;;;;;2.55;87.39;99177.44;101259;1289;111778;-70
2022/12/07 10:31:25;;;;;;;18.70;11.00;;;;;;;2.53;87.18;99182.27;100114;1282;106799;-69
2022/12/07 10:33:54;;;;;;;19.80;12.60;;;;;;;2.52;87.13;99177.81;100137;1288;97716;-69
2022/12/07 10:36:26;;;;;;;19.10;11.50;;;;;;;2.53;87.29;99179.88;100061;1289;138111;-68
2022/12/07 10:38:59;;;;;;;19.70;11.60;;;;;;;2.53;87.06;99181.24;100264;1281;97821;-69
2022/12/07 10:41:28;;;;;;;23.40;12.20;;;;;;;2.52;86.99;99180.39;100086;1281;138379;-69
2022/12/07 10:43:57;;;;;;;19.00;12.80;;;;;;;2.52;87.08;99180.05;101553;1288;107741;-69
2022/12/07 10:47:03;;;;;;;21.00;13.50;;;;;;;2.54;87.10;99185.16;101605;1295;96005;-69
2022/12/07 10:50:08;;;;;;;21.40;13.10;;;;;;;2.60;87.25;99184.89;101462;1296;107726;-70
2022/12/07 10:52:51;;;;;;;19.90;11.70;;;;;;;2.62;86.94;99183.14;100059;1288;97935;-70
2022/12/07 10:55:27;;;;;;;19.30;12.30;;;;;;;2.62;86.96;99183.13;100722;1286;137826;-70
2022/12/07 10:58:07;;;;;;;18.30;12.20;;;;;;;2.64;86.87;99183.42;100466;1293;107467;-69
2022/12/07 11:00:40;;;;;;;18.30;11.90;;;;;;;2.64;86.74;99182.57;100024;1293;138916;-68
2022/12/07 11:03:27;;;;;;;17.10;12.20;;;;;;;2.65;86.67;99182.20;99961;1291;106763;-68
2022/12/07 11:06:02;;;;;;;15.70;10.70;;;;;;;2.68;86.58;99181.13;100120;1291;139013;-69
2022/12/07 11:08:46;;;;;;;17.80;11.40;;;;;;;2.72;86.51;99175.92;99857;1291;112225;-69
2022/12/07 11:11:20;;;;;;;17.80;11.90;;;;;;;2.77;86.52;99175.48;99732;1293;137658;-69
2022/12/07 11:13:54;;;;;;;15.50;11.40;;;;;;;2.81;86.63;99174.20;99898;1300;97828;-69
2022/12/07 11:16:33;;;;;;;18.20;12.90;;;;;;;2.82;86.26;99172.99;99926;1293;108645;-69
2022/12/07 11:19:19;;;;;;;19.20;12.90;;;;;;;2.82;86.25;99175.38;99730;1294;137583;-70
2022/12/07 11:21:59;;;;;;;17.80;12.40;;;;;;;2.79;86.19;99179.23;99879;1287;111027;-68
2022/12/07 11:24:33;;;;;;;17.30;11.50;;;;;;;2.77;86.39;99178.92;99763;1287;138379;-70
2022/12/07 11:27:11;;;;;;;18.70;12.10;;;;;;;2.77;86.27;99178.23;99724;1301;97801;-71
2022/12/07 11:29:53;;;;;;;16.70;11.70;;;;;;;2.77;86.22;99176.86;99813;1289;138181;-70
2022/12/07 11:32:31;;;;;;;16.70;11.90;;;;;;;2.78;86.10;99174.44;100484;1282;97787;-69
2022/12/07 11:35:09;;;;;;;15.30;11.60;;;;;;;2.79;86.27;99172.70;100124;1287;109992;-70
2022/12/07 11:37:40;;;;;;;18.10;13.00;;;;;;;2.81;86.28;99169.23;100057;1281;106633;-71